createdAt,value
2022-08-01T00:00:14.523Z,15.99
2022-08-01T00:03:03.647Z,16.00
2022-08-01T00:05:33.116Z,16.01
2022-08-01T00:08:02.271Z,15.94
2022-08-01T00:10:32.667Z,15.90
2022-08-01T00:13:05.495Z,15.96
2022-08-01T00:15:34.861Z,16.02
2022-08-01T00:18:03.976Z,15.95
2022-08-01T00:20:33.338Z,15.87
2022-08-01T00:23:04.155Z,15.93
2022-08-01T00:25:34.840Z,15.93
2022-08-01T00:28:04.415Z,15.86
2022-08-01T00:30:33.655Z,15.93
2022-08-01T00:33:02.591Z,15.85
2022-08-01T00:35:31.814Z,15.79
2022-08-01T00:38:00.836Z,15.70
2022-08-01T00:40:30.109Z,15.76
2022-08-01T00:43:00.724Z,15.78
2022-08-01T00:45:29.968Z,15.82
2022-08-01T00:47:59.254Z,15.75
2022-08-01T00:50:28.898Z,15.87
2022-08-01T00:52:59.909Z,15.81
2022-08-01T00:55:29.820Z,15.98
2022-08-01T00:58:05.103Z,15.91
2022-08-01T01:00:52.018Z,15.90
2022-08-01T01:03:49.336Z,15.88
2022-08-01T01:06:36.872Z,15.72
2022-08-01T01:09:30.915Z,15.77
2022-08-01T01:12:10.281Z,15.86
2022-08-01T01:14:47.689Z,15.86
2022-08-01T01:17:31.192Z,15.66
2022-08-01T01:20:14.134Z,15.90
2022-08-01T01:23:08.419Z,16.05
2022-08-01T01:25:55.677Z,16.01
2022-08-01T01:28:35.700Z,15.85
2022-08-01T01:31:08.775Z,15.76
2022-08-01T01:33:47.264Z,15.92
2022-08-01T01:36:18.867Z,15.82
2022-08-01T01:38:50.365Z,15.76
2022-08-01T01:41:20.303Z,15.78
2022-08-01T01:43:50.442Z,15.58
2022-08-01T01:46:24.857Z,15.88
2022-08-01T01:48:56.174Z,15.79
2022-08-01T01:51:27.517Z,15.94
2022-08-01T01:53:58.934Z,16.10
2022-08-01T01:56:30.820Z,16.06
2022-08-01T01:59:03.593Z,16.06
2022-08-01T02:01:58.324Z,15.86
2022-08-01T02:04:27.497Z,15.98
2022-08-01T02:06:57.971Z,15.94
2022-08-01T02:09:30.048Z,15.83
2022-08-01T02:12:08.615Z,15.84
2022-08-01T02:14:41.009Z,15.94
2022-08-01T02:17:14.296Z,15.77
2022-08-01T02:19:43.865Z,15.82
2022-08-01T02:22:16.387Z,15.83
2022-08-01T02:24:51.583Z,15.70
2022-08-01T02:27:27.895Z,15.80
2022-08-01T02:30:02.431Z,15.75
2022-08-01T02:32:36.837Z,15.81
2022-08-01T02:35:09.729Z,15.73
2022-08-01T02:37:45.211Z,15.89
2022-08-01T02:40:18.933Z,16.05
2022-08-01T02:42:52.421Z,15.87
2022-08-01T02:45:26.590Z,16.01
2022-08-01T02:48:03.223Z,16.02
2022-08-01T02:50:34.350Z,16.02
2022-08-01T02:53:06.110Z,16.06
2022-08-01T02:55:36.509Z,16.01
2022-08-01T02:58:06.664Z,15.77
2022-08-01T03:00:36.782Z,15.74
2022-08-01T03:03:10.675Z,15.88
2022-08-01T03:05:41.866Z,15.92
2022-08-01T03:08:14.854Z,15.98
2022-08-01T03:15:59.411Z,16.36
2022-08-01T03:18:32.324Z,16.21
2022-08-01T03:21:03.687Z,16.21
2022-08-01T03:23:38.269Z,16.27
2022-08-01T03:26:09.583Z,16.27
2022-08-01T03:28:40.795Z,16.46
2022-08-01T03:31:11.167Z,16.59
2022-08-01T03:33:41.855Z,16.69
2022-08-01T03:36:14.077Z,16.67
2022-08-01T03:38:45.433Z,16.75
2022-08-01T03:41:18.111Z,16.59
2022-08-01T03:43:54.144Z,16.64
2022-08-01T03:46:35.704Z,16.64
2022-08-01T03:49:13.435Z,16.73
2022-08-01T03:51:43.477Z,16.48
2022-08-01T03:54:15.133Z,16.78
2022-08-01T03:56:45.706Z,16.84
2022-08-01T03:59:16.871Z,17.03
2022-08-01T04:01:47.055Z,17.30
2022-08-01T04:04:18.501Z,17.40
2022-08-01T04:06:51.295Z,17.59
2022-08-01T04:09:21.024Z,17.64
2022-08-01T04:11:50.545Z,17.73
2022-08-01T04:14:19.990Z,17.98
2022-08-01T04:16:49.327Z,18.26
2022-08-01T04:19:20.158Z,18.28
2022-08-01T04:21:49.612Z,18.35
2022-08-01T04:24:21.919Z,18.42
2022-08-01T04:26:53.069Z,18.55
2022-08-01T04:29:25.129Z,18.54
2022-08-01T04:31:57.735Z,18.73
2022-08-01T04:34:30.783Z,19.15
2022-08-01T04:37:02.276Z,19.01
2022-08-01T04:39:50.701Z,19.20
2022-08-01T04:42:26.802Z,19.13
2022-08-01T04:45:04.869Z,19.28
2022-08-01T04:47:34.933Z,19.47
2022-08-01T04:50:09.175Z,19.39
2022-08-01T04:52:39.670Z,19.43
2022-08-01T04:55:11.791Z,19.22
2022-08-01T04:57:44.927Z,19.34
2022-08-01T05:00:15.099Z,19.44
2022-08-01T05:02:43.979Z,19.54
2022-08-01T05:05:14.809Z,19.53
2022-08-01T05:07:45.682Z,19.61
2022-08-01T05:10:15.134Z,19.62
2022-08-01T05:12:44.312Z,19.75
2022-08-01T05:15:15.717Z,19.80
2022-08-01T05:17:44.996Z,19.74
2022-08-01T05:20:15.958Z,19.76
2022-08-01T05:22:45.445Z,19.68
2022-08-01T05:25:14.593Z,19.59
2022-08-01T05:27:51.079Z,19.55
2022-08-01T05:30:20.212Z,19.59
2022-08-01T05:32:49.262Z,19.51
2022-08-01T05:35:19.955Z,19.70
2022-08-01T05:37:48.877Z,20.11
2022-08-01T05:40:17.816Z,20.20
2022-08-01T05:42:47.036Z,20.29
2022-08-01T05:45:16.094Z,20.45
2022-08-01T05:47:44.948Z,20.35
2022-08-01T05:50:14.313Z,20.62
2022-08-01T05:52:44.823Z,20.53
2022-08-01T05:55:14.040Z,20.42
2022-08-01T05:57:43.130Z,20.24
2022-08-01T06:00:13.854Z,20.35
2022-08-01T06:02:44.545Z,20.33
2022-08-01T06:05:13.914Z,20.50
2022-08-01T06:07:44.288Z,20.47
2022-08-01T06:10:13.419Z,20.48
2022-08-01T06:12:42.668Z,20.47
2022-08-01T06:15:12.530Z,20.50
2022-08-01T06:17:42.354Z,20.66
2022-08-01T06:20:12.837Z,20.89
2022-08-01T06:22:43.303Z,20.94
2022-08-01T06:25:12.688Z,21.07
2022-08-01T06:27:41.753Z,21.35
2022-08-01T06:30:11.491Z,21.57
2022-08-01T06:32:40.746Z,21.76
2022-08-01T06:35:10.364Z,21.80
2022-08-01T06:37:39.273Z,21.81
2022-08-01T06:40:16.649Z,22.10
2022-08-01T06:42:46.986Z,22.31
2022-08-01T06:45:16.880Z,22.48
2022-08-01T06:47:50.655Z,22.63
2022-08-01T06:50:20.617Z,22.49
2022-08-01T06:52:49.639Z,22.44
2022-08-01T06:55:20.780Z,22.61
2022-08-01T06:57:51.705Z,22.75
2022-08-01T07:00:23.563Z,22.93
2022-08-01T07:02:53.290Z,22.86
2022-08-01T07:05:24.300Z,22.77
2022-08-01T07:07:53.935Z,23.02
2022-08-01T07:10:24.366Z,23.31
2022-08-01T07:12:53.656Z,23.65
2022-08-01T07:15:27.361Z,23.77
2022-08-01T07:17:58.053Z,23.79
2022-08-01T07:20:27.266Z,23.72
2022-08-01T07:22:56.440Z,23.83
2022-08-01T07:25:26.922Z,23.97
2022-08-01T07:27:56.427Z,23.96
2022-08-01T07:30:25.587Z,24.02
2022-08-01T07:32:54.555Z,24.43
2022-08-01T07:35:23.918Z,24.78
2022-08-01T07:37:54.158Z,24.65
2022-08-01T07:40:23.497Z,24.54
2022-08-01T07:42:54.071Z,24.72
2022-08-01T07:45:23.435Z,24.84
2022-08-01T07:47:52.584Z,25.04
2022-08-01T07:50:21.863Z,25.97
2022-08-01T07:52:50.958Z,25.87
2022-08-01T07:55:20.006Z,25.95
2022-08-01T07:57:49.041Z,25.65
2022-08-01T08:00:20.457Z,25.95
2022-08-01T08:02:49.518Z,25.44
2022-08-01T08:05:59.031Z,24.99
2022-08-01T08:08:08.511Z,25.02
2022-08-01T08:10:37.887Z,25.47
2022-08-01T08:13:06.920Z,25.97
2022-08-01T08:15:40.175Z,26.97
2022-08-01T08:18:09.540Z,26.81
2022-08-01T08:20:38.437Z,27.14
2022-08-01T08:23:43.276Z,26.55
2022-08-01T08:26:13.221Z,26.14
2022-08-01T08:28:42.759Z,26.35
2022-08-01T08:31:25.329Z,26.14
2022-08-01T08:34:02.668Z,26.68
2022-08-01T08:36:32.258Z,26.54
2022-08-01T08:39:01.814Z,26.58
2022-08-01T08:41:37.706Z,26.37
2022-08-01T08:44:10.359Z,26.34
2022-08-01T08:46:45.061Z,26.70
2022-08-01T08:49:17.668Z,26.47
2022-08-01T08:51:50.011Z,26.83
2022-08-01T08:54:21.821Z,26.62
2022-08-01T08:56:52.783Z,26.20
2022-08-01T08:59:23.013Z,26.19
2022-08-01T09:01:56.559Z,26.79
2022-08-01T09:04:27.164Z,26.98
2022-08-01T09:06:57.398Z,27.38
2022-08-01T09:09:26.732Z,27.58
2022-08-01T09:11:58.153Z,27.76
2022-08-01T09:14:31.587Z,27.81
2022-08-01T09:17:09.657Z,28.57
2022-08-01T09:19:41.823Z,28.22
2022-08-01T09:22:12.869Z,28.65
2022-08-01T09:24:43.205Z,29.53
2022-08-01T09:27:25.141Z,30.05
2022-08-01T09:30:01.586Z,30.10
2022-08-01T09:32:37.485Z,28.71
2022-08-01T09:35:36.479Z,28.76
2022-08-01T09:38:20.391Z,28.01
2022-08-01T09:40:53.423Z,27.53
2022-08-01T09:43:24.276Z,27.55
2022-08-01T09:45:55.225Z,27.14
2022-08-01T09:48:27.830Z,28.07
2022-08-01T09:51:03.953Z,28.87
2022-08-01T09:53:51.710Z,30.32
2022-08-01T09:56:24.003Z,30.35
2022-08-01T09:59:00.007Z,30.26
2022-08-01T10:01:43.533Z,29.94
2022-08-01T10:04:15.622Z,29.67
2022-08-01T10:06:50.711Z,30.23
2022-08-01T10:09:39.682Z,30.79
2022-08-01T10:12:15.688Z,31.55
2022-08-01T10:14:46.268Z,32.24
2022-08-01T10:17:19.827Z,32.92
2022-08-01T10:19:55.598Z,32.84
2022-08-01T10:22:31.011Z,32.23
2022-08-01T10:25:06.429Z,32.68
2022-08-01T10:27:40.974Z,32.39
2022-08-01T10:30:19.770Z,31.43
2022-08-01T10:32:54.987Z,31.51
2022-08-01T10:35:47.241Z,31.45
2022-08-01T10:38:15.272Z,30.95
2022-08-01T10:40:45.316Z,31.39
2022-08-01T10:43:21.923Z,31.17
2022-08-01T10:45:52.963Z,31.83
2022-08-01T10:48:29.722Z,35.60
2022-08-01T10:51:02.667Z,38.81
2022-08-01T10:53:42.825Z,37.36
2022-08-01T10:56:12.861Z,35.00
2022-08-01T10:58:46.603Z,35.58
2022-08-01T11:01:20.357Z,34.03
2022-08-01T11:04:16.117Z,32.67
2022-08-01T11:06:55.817Z,31.41
2022-08-01T11:09:36.485Z,30.84
2022-08-01T11:12:13.478Z,30.90
2022-08-01T11:15:29.194Z,31.89
2022-08-01T11:18:02.482Z,32.68
2022-08-01T11:20:34.160Z,30.89
2022-08-01T11:23:36.385Z,31.22
2022-08-01T11:26:15.015Z,31.87
2022-08-01T11:29:19.882Z,31.14
2022-08-01T11:31:49.877Z,30.33
2022-08-01T11:34:19.722Z,30.27
2022-08-01T11:36:58.938Z,30.83
2022-08-01T11:39:30.226Z,32.19
2022-08-01T11:42:21.269Z,32.87
2022-08-01T11:44:52.362Z,32.46
2022-08-01T11:47:36.610Z,33.94
2022-08-01T11:50:06.921Z,36.32
2022-08-01T11:52:37.278Z,39.02
2022-08-01T11:55:11.900Z,40.58
2022-08-01T11:57:45.967Z,41.73
2022-08-01T12:00:20.514Z,41.62
2022-08-01T12:02:59.997Z,38.57
2022-08-01T12:05:31.643Z,37.15
2022-08-01T12:08:01.550Z,38.19
2022-08-01T12:10:47.038Z,36.82
2022-08-01T12:13:20.472Z,36.98
2022-08-01T12:15:56.247Z,37.30
2022-08-01T12:18:26.220Z,41.07
2022-08-01T12:21:05.753Z,43.82
2022-08-01T12:23:35.120Z,44.65
2022-08-01T12:26:06.436Z,45.47
2022-08-01T12:28:42.421Z,46.23
2022-08-01T12:31:12.751Z,48.27
2022-08-01T12:33:42.101Z,46.30
2022-08-01T12:36:14.684Z,45.94
2022-08-01T12:38:44.291Z,44.48
2022-08-01T12:41:15.502Z,41.74
2022-08-01T12:43:45.082Z,40.80
2022-08-01T12:46:18.380Z,38.85
2022-08-01T12:48:47.878Z,37.59
2022-08-01T12:51:17.270Z,36.37
2022-08-01T12:53:47.946Z,36.81
2022-08-01T12:56:18.323Z,35.69
2022-08-01T12:58:48.357Z,35.54
2022-08-01T13:01:17.949Z,36.81
2022-08-01T13:04:01.277Z,35.90
2022-08-01T13:06:32.381Z,37.87
2022-08-01T13:09:08.615Z,39.30
2022-08-01T13:11:39.422Z,41.09
2022-08-01T13:14:32.298Z,42.08
2022-08-01T13:17:01.804Z,39.52
2022-08-01T13:19:45.061Z,37.33
2022-08-01T13:22:14.205Z,35.63
2022-08-01T13:24:43.665Z,35.36
2022-08-01T13:27:26.346Z,39.46
2022-08-01T13:29:55.489Z,37.32
2022-08-01T13:32:29.850Z,39.05
2022-08-01T13:35:05.341Z,41.88
2022-08-01T13:37:38.723Z,36.29
2022-08-01T13:40:10.369Z,35.63
2022-08-01T13:42:40.946Z,36.59
2022-08-01T13:45:14.831Z,34.60
2022-08-01T13:48:03.673Z,33.86
2022-08-01T13:50:34.274Z,35.10
2022-08-01T13:53:03.858Z,34.84
2022-08-01T13:55:35.169Z,34.55
2022-08-01T13:58:06.635Z,34.15
2022-08-01T14:00:35.937Z,32.48
2022-08-01T14:03:05.320Z,31.47
2022-08-01T14:05:34.527Z,30.53
2022-08-01T14:08:03.723Z,30.34
2022-08-01T14:10:33.783Z,30.48
2022-08-01T14:13:02.990Z,30.62
2022-08-01T14:15:39.789Z,33.65
2022-08-01T14:18:10.996Z,35.06
2022-08-01T14:20:41.498Z,37.25
2022-08-01T14:23:11.248Z,37.96
2022-08-01T14:26:05.256Z,41.89
2022-08-01T14:28:31.241Z,39.78
2022-08-01T14:31:02.406Z,35.88
2022-08-01T14:33:31.939Z,34.27
2022-08-01T14:36:25.943Z,33.00
2022-08-01T14:38:52.739Z,31.68
2022-08-01T14:41:21.861Z,30.09
2022-08-01T14:43:51.725Z,30.29
2022-08-01T14:46:22.351Z,30.08
2022-08-01T14:48:51.493Z,29.78
2022-08-01T14:51:20.620Z,29.44
2022-08-01T14:53:50.960Z,29.39
2022-08-01T14:56:22.172Z,29.13
2022-08-01T14:58:52.289Z,30.01
2022-08-01T15:01:22.793Z,29.96
2022-08-01T15:03:52.426Z,31.09
2022-08-01T15:06:21.331Z,30.53
2022-08-01T15:08:50.364Z,29.49
2022-08-01T15:11:19.566Z,30.93
2022-08-01T15:14:09.352Z,33.41
2022-08-01T15:16:40.289Z,35.15
2022-08-01T15:19:10.252Z,35.20
2022-08-01T15:21:41.916Z,35.45
2022-08-01T15:24:11.982Z,33.87
2022-08-01T15:26:41.415Z,34.53
2022-08-01T15:29:11.825Z,34.94
2022-08-01T15:31:42.538Z,34.93
2022-08-01T15:34:12.151Z,33.77
2022-08-01T15:36:43.490Z,35.16
2022-08-01T15:39:13.222Z,33.84
2022-08-01T15:41:42.319Z,33.72
2022-08-01T15:44:11.489Z,35.04
2022-08-01T15:46:42.110Z,33.79
2022-08-01T15:49:11.837Z,33.37
2022-08-01T15:51:41.012Z,32.69
2022-08-01T15:54:14.617Z,33.81
2022-08-01T15:56:44.157Z,33.20
2022-08-01T15:59:15.523Z,32.55
2022-08-01T16:01:46.237Z,32.84
2022-08-01T16:04:21.206Z,32.90
2022-08-01T16:06:56.283Z,31.83
2022-08-01T16:09:25.639Z,32.16
2022-08-01T16:11:56.061Z,31.51
2022-08-01T16:14:25.204Z,31.11
2022-08-01T16:16:55.877Z,31.52
2022-08-01T16:19:25.805Z,31.60
2022-08-01T16:21:55.042Z,31.93
2022-08-01T16:24:24.111Z,30.98
2022-08-01T16:26:52.937Z,30.76
2022-08-01T16:29:22.384Z,30.18
2022-08-01T16:31:57.221Z,30.83
2022-08-01T16:34:44.541Z,29.73
2022-08-01T16:37:16.595Z,29.90
2022-08-01T16:39:45.963Z,29.46
2022-08-01T16:42:16.799Z,29.05
2022-08-01T16:44:46.132Z,28.30
2022-08-01T16:47:19.245Z,28.51
2022-08-01T16:49:49.937Z,28.79
2022-08-01T16:52:20.552Z,28.07
2022-08-01T16:54:49.779Z,28.28
2022-08-01T16:57:18.698Z,28.61
2022-08-01T16:59:47.902Z,27.61
2022-08-01T17:02:17.378Z,27.59
2022-08-01T17:04:46.479Z,27.55
2022-08-01T17:07:16.905Z,27.60
2022-08-01T17:09:45.998Z,27.59
2022-08-01T17:12:22.319Z,27.27
2022-08-01T17:14:52.277Z,27.28
2022-08-01T17:17:22.360Z,26.89
2022-08-01T17:19:52.105Z,26.95
2022-08-01T17:22:22.543Z,26.76
2022-08-01T17:24:52.656Z,26.10
2022-08-01T17:27:22.112Z,25.76
2022-08-01T17:29:51.281Z,25.78
2022-08-01T17:32:20.309Z,25.83
2022-08-01T17:34:50.136Z,25.80
2022-08-01T17:37:19.416Z,25.49
2022-08-01T17:39:49.694Z,25.69
2022-08-01T17:42:18.853Z,25.54
2022-08-01T17:44:49.233Z,25.40
2022-08-01T17:47:48.123Z,25.13
2022-08-01T17:50:13.094Z,24.98
2022-08-01T17:52:42.388Z,24.81
2022-08-01T17:55:53.218Z,24.84
2022-08-01T17:58:09.974Z,24.37
2022-08-01T18:00:39.521Z,24.39
2022-08-01T18:03:08.495Z,24.34
2022-08-01T18:05:38.485Z,24.43
2022-08-01T18:08:08.050Z,24.27
2022-08-01T18:10:39.797Z,24.50
2022-08-01T18:13:09.437Z,24.24
2022-08-01T18:15:38.728Z,24.15
2022-08-01T18:18:08.575Z,24.11
2022-08-01T18:20:39.000Z,24.11
2022-08-01T18:23:11.218Z,24.07
2022-08-01T18:25:42.361Z,23.93
2022-08-01T18:28:19.569Z,23.66
2022-08-01T18:31:00.529Z,23.66
2022-08-01T18:33:30.052Z,23.61
2022-08-01T18:36:03.852Z,23.56
2022-08-01T18:38:35.205Z,23.57
2022-08-01T18:41:10.542Z,23.52
2022-08-01T18:43:40.186Z,23.38
2022-08-01T18:46:10.034Z,23.34
2022-08-01T18:48:39.488Z,23.20
2022-08-01T18:51:11.004Z,23.22
2022-08-01T18:53:42.317Z,23.21
2022-08-01T18:56:17.612Z,23.11
2022-08-01T18:58:47.521Z,23.07
2022-08-01T19:01:16.725Z,22.96
2022-08-01T19:03:46.103Z,22.91
2022-08-01T19:06:15.615Z,22.82
2022-08-01T19:08:47.486Z,22.83
2022-08-01T19:11:18.297Z,22.80
2022-08-01T19:13:47.687Z,22.65
2022-08-01T19:16:17.586Z,22.60
2022-08-01T19:18:46.979Z,22.48
2022-08-01T19:21:19.906Z,22.41
2022-08-01T19:24:06.539Z,22.46
2022-08-01T19:26:38.121Z,22.36
2022-08-01T19:29:15.471Z,22.41
2022-08-01T19:31:49.054Z,22.15
2022-08-01T19:34:26.504Z,22.17
2022-08-01T19:36:58.500Z,22.17
2022-08-01T19:39:28.917Z,22.06
2022-08-01T19:42:00.347Z,22.00
2022-08-01T19:44:31.088Z,21.77
2022-08-01T19:47:02.062Z,21.92
2022-08-01T19:49:33.131Z,21.80
2022-08-01T19:52:04.760Z,21.87
2022-08-01T19:54:36.569Z,21.83
2022-08-01T19:57:09.745Z,21.68
2022-08-01T19:59:39.645Z,21.58
2022-08-01T20:02:09.394Z,21.54
2022-08-01T20:04:38.674Z,21.52
2022-08-01T20:07:08.506Z,21.42
2022-08-01T20:09:41.378Z,21.32
2022-08-01T20:12:13.330Z,21.28
2022-08-01T20:14:44.044Z,21.19
2022-08-01T20:17:15.684Z,21.08
2022-08-01T20:19:46.498Z,21.11
2022-08-01T20:22:17.615Z,21.21
2022-08-01T20:24:50.134Z,21.02
2022-08-01T20:27:25.360Z,21.13
2022-08-01T20:29:58.269Z,21.18
2022-08-01T20:32:32.064Z,21.21
2022-08-01T20:35:07.266Z,21.13
2022-08-01T20:38:05.426Z,21.05
2022-08-01T20:40:36.539Z,20.81
2022-08-01T20:43:08.495Z,20.61
2022-08-01T20:45:37.522Z,20.63
2022-08-01T20:48:09.245Z,20.75
2022-08-01T20:50:57.390Z,20.61
2022-08-01T20:53:28.033Z,20.72
2022-08-01T20:56:04.479Z,20.85
2022-08-01T20:58:58.467Z,20.82
2022-08-01T21:01:30.950Z,20.87
2022-08-01T21:04:36.729Z,20.71
2022-08-01T21:07:18.260Z,20.50
2022-08-01T21:10:04.395Z,20.67
2022-08-01T21:12:44.901Z,20.87
2022-08-01T21:15:28.254Z,20.73
2022-08-01T21:18:03.156Z,20.94
2022-08-01T21:20:35.838Z,20.88
2022-08-01T21:23:15.748Z,20.88
2022-08-01T21:25:45.518Z,20.87
2022-08-01T21:28:15.800Z,20.97
2022-08-01T21:30:55.564Z,20.75
2022-08-01T21:33:26.550Z,20.72
2022-08-01T21:36:02.733Z,20.68
2022-08-01T21:38:37.120Z,20.82
2022-08-01T21:41:09.386Z,20.83
2022-08-01T21:43:39.789Z,20.65
2022-08-01T21:46:11.943Z,20.65
2022-08-01T21:48:42.766Z,20.14
2022-08-01T21:51:28.020Z,20.10
2022-08-01T21:54:07.233Z,20.29
2022-08-01T21:56:49.787Z,20.13
2022-08-01T21:59:29.575Z,20.23
2022-08-01T22:02:04.659Z,20.33
2022-08-01T22:04:42.165Z,20.39
2022-08-01T22:07:14.620Z,20.32
2022-08-01T22:09:46.982Z,20.28
2022-08-01T22:12:18.633Z,20.51
2022-08-01T22:14:54.249Z,20.46
2022-08-01T22:17:26.154Z,20.28
2022-08-01T22:19:56.340Z,20.35
2022-08-01T22:22:50.831Z,20.36
2022-08-01T22:25:16.460Z,20.37
2022-08-01T22:28:07.927Z,20.37
2022-08-01T22:30:41.490Z,20.41
2022-08-01T22:33:16.575Z,20.49
2022-08-01T22:35:47.700Z,20.58
2022-08-01T22:38:19.857Z,20.45
2022-08-01T22:40:51.654Z,20.42
2022-08-01T22:43:30.091Z,20.42
2022-08-01T22:46:11.514Z,20.59
2022-08-01T22:48:47.576Z,20.38
2022-08-01T22:51:33.360Z,20.63
2022-08-01T22:54:07.260Z,20.61
2022-08-01T22:56:40.148Z,20.93
2022-08-01T22:59:15.798Z,20.80
2022-08-01T23:01:50.591Z,20.89
2022-08-01T23:04:33.409Z,21.04
2022-08-01T23:07:06.933Z,20.76
2022-08-01T23:09:53.498Z,20.79
2022-08-01T23:12:26.886Z,20.64
2022-08-01T23:14:57.487Z,20.59
2022-08-01T23:17:29.228Z,20.76
2022-08-01T23:20:02.380Z,20.73
2022-08-01T23:22:33.715Z,20.79
2022-08-01T23:25:06.464Z,20.86
2022-08-01T23:27:57.835Z,20.78
2022-08-01T23:30:29.618Z,20.89
2022-08-01T23:32:59.790Z,20.85
2022-08-01T23:35:31.885Z,20.88
2022-08-01T23:38:04.899Z,20.82
2022-08-01T23:40:35.318Z,20.69
2022-08-01T23:43:06.463Z,20.56
2022-08-01T23:46:02.623Z,20.55
2022-08-01T23:48:34.831Z,20.44
2022-08-01T23:51:06.849Z,20.51
2022-08-01T23:53:38.375Z,20.56
2022-08-01T23:56:07.963Z,20.47
2022-08-01T23:58:37.151Z,20.42
